Time;durP1;ratioP1;P1;durP2;ratioP2;P2;SDS_P1;SDS_P2;PMS_P1;PMS_P2;Temp;Humidity;BMP_temperature;BMP_pressure;BME280_temperature;BME280_humidity;BME280_pressure;Samples;Min_cycle;Max_cycle;Signal;HPM_P1;HPM_P2
2022/11/05 00:10:19;;;;;;;3.80;3.27;;;;;;;9.42;100.00;100053.16;5074922;28;20245;-75
2022/11/05 00:18:13;;;;;;;4.20;3.90;;;;;;;9.40;100.00;100056.59;5057249;28;20749;-75
2022/11/05 00:20:38;;;;;;;4.40;3.97;;;;;;;9.41;100.00;100056.59;5051860;28;20329;-75
2022/11/05 00:25:56;;;;;;;4.97;4.53;;;;;;;9.41;100.00;100059.19;5070838;28;20315;-73
2022/11/05 00:28:21;;;;;;;5.17;4.67;;;;;;;9.42;100.00;100060.91;5062481;28;20186;-75
2022/11/05 00:30:47;;;;;;;4.83;4.33;;;;;;;9.43;100.00;100065.19;5054606;28;20210;-71
2022/11/05 00:33:13;;;;;;;5.47;5.07;;;;;;;9.45;100.00;100067.75;5070270;28;20283;-75
2022/11/05 00:35:39;;;;;;;5.10;4.70;;;;;;;9.45;100.00;100067.75;5056991;28;20291;-75
2022/11/05 00:38:04;;;;;;;5.50;5.10;;;;;;;9.44;100.00;100063.44;5062774;28;20568;-73
2022/11/05 00:40:29;;;;;;;5.50;5.10;;;;;;;9.44;100.00;100064.31;5065969;28;20210;-76
2022/11/05 00:45:39;;;;;;;5.40;5.00;;;;;;;9.44;100.00;100064.31;5075243;28;20639;-74
2022/11/05 00:50:49;;;;;;;7.30;6.67;;;;;;;9.46;100.00;100064.31;5067762;28;20267;-75
2022/11/05 00:53:14;;;;;;;7.33;6.73;;;;;;;9.45;100.00;100068.59;5069973;28;20185;-71
2022/11/05 00:55:42;;;;;;;6.80;6.23;;;;;;;9.43;100.00;100075.53;5064407;28;20228;-74
2022/11/05 00:58:10;;;;;;;6.80;6.10;;;;;;;9.44;100.00;100076.38;5065904;28;20201;-76
2022/11/05 01:00:38;;;;;;;6.90;6.40;;;;;;;9.41;100.00;100077.25;5062821;28;20308;-75
2022/11/05 01:03:10;;;;;;;7.67;7.07;;;;;;;9.42;100.00;100078.09;5061655;28;20201;-76
2022/11/05 01:05:54;;;;;;;6.90;6.30;;;;;;;9.41;100.00;100081.56;5061512;28;20704;-76
2022/11/05 01:08:21;;;;;;;7.77;7.17;;;;;;;9.40;100.00;100088.47;5062029;28;20541;-73
2022/11/05 01:10:51;;;;;;;7.17;6.57;;;;;;;9.41;100.00;100089.28;5061004;28;20712;-75
2022/11/05 01:13:20;;;;;;;7.97;7.30;;;;;;;9.40;100.00;100092.75;5062247;28;20181;-74
2022/11/05 01:15:46;;;;;;;8.10;7.50;;;;;;;9.38;100.00;100092.78;5060797;28;20268;-75
2022/11/05 01:18:11;;;;;;;8.13;7.53;;;;;;;9.39;100.00;100094.50;5063587;28;20186;-73
2022/11/05 01:20:38;;;;;;;7.60;7.00;;;;;;;9.39;100.00;100096.19;5064088;28;20755;-76
2022/11/05 01:23:03;;;;;;;7.50;6.90;;;;;;;9.39;100.00;100096.19;5067046;28;20236;-76
2022/11/05 01:25:28;;;;;;;7.63;7.03;;;;;;;9.37;100.00;100096.22;5066227;28;20180;-76
2022/11/05 01:27:54;;;;;;;7.90;7.30;;;;;;;9.38;100.00;100097.94;5068188;28;20186;-75
2022/11/05 01:30:20;;;;;;;7.33;6.83;;;;;;;9.38;100.00;100107.38;5061292;28;20296;-74
2022/11/05 01:32:46;;;;;;;8.13;7.53;;;;;;;9.38;100.00;100103.09;5064362;28;20191;-76
2022/11/05 01:35:14;;;;;;;8.37;7.67;;;;;;;9.41;100.00;100105.66;5073159;28;20284;-76
2022/11/05 01:37:39;;;;;;;8.20;7.60;;;;;;;9.43;100.00;100113.41;5070892;28;20186;-75
2022/11/05 01:40:07;;;;;;;8.23;7.53;;;;;;;9.42;100.00;100107.38;5068478;28;20205;-76
2022/11/05 01:42:35;;;;;;;8.77;8.07;;;;;;;9.44;100.00;100108.25;5059304;28;20653;-74
2022/11/05 01:45:00;;;;;;;9.30;8.50;;;;;;;9.46;100.00;100113.38;5062398;28;20190;-76
2022/11/05 01:47:32;;;;;;;9.87;9.07;;;;;;;9.46;100.00;100114.22;5071539;28;20206;-76
2022/11/05 01:50:19;;;;;;;9.57;8.83;;;;;;;9.46;100.00;100114.22;5062826;28;20202;-76
2022/11/05 01:52:47;;;;;;;9.17;8.47;;;;;;;9.47;100.00;100112.50;5057479;28;20364;-75
2022/11/05 01:55:18;;;;;;;9.67;8.87;;;;;;;9.49;100.00;100121.13;5063624;28;20193;-77
2022/11/05 01:57:44;;;;;;;9.90;9.10;;;;;;;9.50;100.00;100122.84;5065044;28;20205;-74
2022/11/05 02:00:10;;;;;;;9.40;8.70;;;;;;;9.51;100.00;100121.97;5070176;28;20231;-76
2022/11/05 02:02:36;;;;;;;9.60;8.90;;;;;;;9.51;100.00;100121.09;5072480;28;20177;-75
2022/11/05 02:05:05;;;;;;;10.27;9.47;;;;;;;9.51;100.00;100124.53;5065009;28;20319;-76
2022/11/05 02:07:32;;;;;;;8.97;8.27;;;;;;;9.51;100.00;100124.53;5070117;28;20224;-76
2022/11/05 02:10:03;;;;;;;9.10;8.40;;;;;;;9.53;100.00;100125.38;5064113;28;20231;-75
2022/11/05 02:12:31;;;;;;;9.50;8.80;;;;;;;9.55;100.00;100133.13;5055348;28;20179;-77
2022/11/05 02:14:57;;;;;;;8.47;7.87;;;;;;;9.56;100.00;100127.09;5061108;28;20210;-76
2022/11/05 02:17:33;;;;;;;8.43;7.83;;;;;;;9.55;100.00;100126.22;5064609;28;20725;-76
2022/11/05 02:20:21;;;;;;;8.83;8.13;;;;;;;9.56;100.00;100129.69;5058095;28;20217;-76
2022/11/05 02:23:08;;;;;;;8.80;8.00;;;;;;;9.54;100.00;100132.25;5057604;28;20183;-75
2022/11/05 02:26:03;;;;;;;9.53;8.83;;;;;;;9.53;100.00;100138.28;5055879;28;20197;-77
2022/11/05 02:28:49;;;;;;;8.70;8.00;;;;;;;9.54;100.00;100140.00;5010493;28;20283;-76
2022/11/05 02:31:33;;;;;;;8.63;7.97;;;;;;;9.54;100.00;100144.31;5056186;28;20193;-76
2022/11/05 02:34:17;;;;;;;9.10;8.43;;;;;;;9.54;100.00;100144.31;5057108;28;20194;-76
2022/11/05 02:36:55;;;;;;;8.57;7.97;;;;;;;9.55;100.00;100149.47;5057848;28;20197;-77
2022/11/05 02:39:29;;;;;;;8.70;8.00;;;;;;;9.55;100.00;100151.22;5066515;28;20236;-77
2022/11/05 02:42:09;;;;;;;8.10;7.50;;;;;;;9.57;100.00;100145.16;5057572;28;20739;-75
2022/11/05 02:44:55;;;;;;;8.57;7.97;;;;;;;9.58;100.00;100157.22;5056383;28;20292;-77
2022/11/05 02:47:35;;;;;;;8.93;8.23;;;;;;;9.60;100.00;100155.47;5063523;28;20196;-77
2022/11/05 02:50:31;;;;;;;9.03;8.43;;;;;;;9.62;100.00;100155.44;5062192;28;20617;-77
2022/11/05 02:53:07;;;;;;;8.83;8.20;;;;;;;9.65;100.00;100159.75;5059300;28;20212;-77
2022/11/05 02:55:38;;;;;;;9.57;8.77;;;;;;;9.65;100.00;100152.84;5063778;28;20196;-76
2022/11/05 02:58:04;;;;;;;8.90;8.20;;;;;;;9.66;100.00;100148.56;5066647;28;20411;-76
2022/11/05 03:00:52;;;;;;;8.17;7.57;;;;;;;9.68;100.00;100154.56;5069167;28;20555;-76
2022/11/05 03:03:24;;;;;;;8.77;8.07;;;;;;;9.67;100.00;100158.88;5067605;28;20193;-77
2022/11/05 03:05:59;;;;;;;8.27;7.57;;;;;;;9.68;100.00;100157.16;5065976;28;20696;-75
2022/11/05 03:08:50;;;;;;;7.90;7.33;;;;;;;9.68;100.00;100163.16;5060814;28;20185;-77
2022/11/05 03:11:25;;;;;;;8.77;8.07;;;;;;;9.67;100.00;100161.44;5064176;28;20178;-76
2022/11/05 03:14:10;;;;;;;7.80;7.20;;;;;;;9.67;100.00;100171.78;5066052;28;20193;-76
2022/11/05 03:16:40;;;;;;;8.20;7.53;;;;;;;9.66;100.00;100174.41;5062696;28;20177;-76
2022/11/05 03:19:14;;;;;;;9.13;8.43;;;;;;;9.65;100.00;100180.44;5065597;28;20213;-76
2022/11/05 03:21:52;;;;;;;8.20;7.50;;;;;;;9.64;100.00;100184.72;5067651;28;20213;-77
2022/11/05 03:24:23;;;;;;;8.30;7.60;;;;;;;9.62;100.00;100183.88;5060208;28;20670;-76
2022/11/05 03:27:01;;;;;;;7.87;7.27;;;;;;;9.63;100.00;100183.00;5061656;28;20208;-76
2022/11/05 03:29:40;;;;;;;7.43;6.83;;;;;;;9.64;100.00;100192.47;5066634;28;20202;-76
2022/11/05 03:32:07;;;;;;;7.53;6.93;;;;;;;9.62;100.00;100191.63;5074438;28;20272;-77
2022/11/05 03:34:41;;;;;;;8.13;7.43;;;;;;;9.61;100.00;100195.94;5060109;28;20665;-75
2022/11/05 03:37:08;;;;;;;7.70;7.10;;;;;;;9.61;100.00;100192.47;5060158;28;20810;-76
2022/11/05 03:39:42;;;;;;;7.73;7.00;;;;;;;9.62;100.00;100199.38;5053582;28;20210;-75
2022/11/05 03:42:11;;;;;;;7.87;7.17;;;;;;;9.60;100.00;100194.22;5067730;28;20673;-76
2022/11/05 03:44:41;;;;;;;8.00;7.27;;;;;;;9.59;100.00;100205.44;5067556;28;20342;-75
2022/11/05 03:47:13;;;;;;;7.10;6.60;;;;;;;9.59;100.00;100209.75;5073054;28;20185;-77
2022/11/05 03:49:52;;;;;;;8.10;7.40;;;;;;;9.58;100.00;100203.72;5065471;28;20216;-75
2022/11/05 03:52:22;;;;;;;8.80;8.10;;;;;;;9.57;100.00;100206.31;5065730;28;20560;-74
2022/11/05 03:54:48;;;;;;;9.00;8.13;;;;;;;9.55;100.00;100214.06;5069308;28;20308;-74
2022/11/05 03:57:16;;;;;;;9.20;8.50;;;;;;;9.54;100.00;100225.25;5074097;28;20300;-76
2022/11/05 03:59:44;;;;;;;9.13;8.43;;;;;;;9.52;100.00;100228.72;5072313;28;20261;-76
2022/11/05 04:02:11;;;;;;;9.03;8.33;;;;;;;9.52;100.00;100228.72;5073199;28;20272;-74
2022/11/05 04:04:37;;;;;;;8.93;8.23;;;;;;;9.51;100.00;100229.59;5067449;28;20678;-77
2022/11/05 04:15:14;;;;;;;8.47;7.73;;;;;;;9.55;100.00;100242.47;5065745;28;20231;-74
2022/11/05 04:17:40;;;;;;;8.90;8.10;;;;;;;9.55;100.00;100239.91;5057448;28;20217;-75
2022/11/05 04:25:43;;;;;;;8.13;7.47;;;;;;;9.56;100.00;100251.09;5061664;28;20216;-75
2022/11/05 04:28:08;;;;;;;7.77;7.17;;;;;;;9.56;100.00;100254.53;5067955;28;20566;-77
2022/11/05 04:30:33;;;;;;;8.20;7.50;;;;;;;9.56;100.00;100256.28;5062825;28;20214;-75
2022/11/05 04:33:10;;;;;;;8.23;7.53;;;;;;;9.53;100.00;100254.53;5058612;28;20286;-73
2022/11/05 04:35:37;;;;;;;8.17;7.40;;;;;;;9.50;100.00;100257.16;5060759;28;20941;-74
2022/11/05 04:38:04;;;;;;;7.70;7.10;;;;;;;9.49;100.00;100265.78;5060365;28;20759;-76
2022/11/05 04:40:30;;;;;;;8.03;7.33;;;;;;;9.46;100.00;100258.88;5062718;28;20232;-74
2022/11/05 04:42:55;;;;;;;7.23;6.70;;;;;;;9.45;100.00;100256.31;5058610;28;20288;-76
2022/11/05 04:45:27;;;;;;;8.77;7.90;;;;;;;9.43;100.00;100264.09;5072536;28;20182;-74
2022/11/05 04:47:52;;;;;;;8.10;7.40;;;;;;;9.40;100.00;100260.63;5059827;28;20633;-74
2022/11/05 04:50:18;;;;;;;8.13;7.53;;;;;;;9.36;100.00;100259.78;5068591;28;20201;-77
2022/11/05 04:52:43;;;;;;;7.97;7.37;;;;;;;9.32;100.00;100268.41;5067193;28;20768;-76
2022/11/05 04:55:09;;;;;;;8.30;7.60;;;;;;;9.29;100.00;100265.88;5062902;28;21074;-74
2022/11/05 04:57:34;;;;;;;8.40;7.80;;;;;;;9.29;100.00;100273.63;5062761;28;20355;-74
2022/11/05 05:00:00;;;;;;;8.60;7.90;;;;;;;9.29;100.00;100278.78;5068466;28;20695;-76
2022/11/05 05:02:26;;;;;;;7.30;6.80;;;;;;;9.30;100.00;100278.75;5065273;28;20269;-77
2022/11/05 05:04:51;;;;;;;8.13;7.53;;;;;;;9.30;100.00;100283.09;5062339;28;20587;-76
2022/11/05 05:07:16;;;;;;;7.20;6.50;;;;;;;9.30;100.00;100285.66;5067743;28;20182;-77
2022/11/05 05:09:42;;;;;;;7.53;6.83;;;;;;;9.32;100.00;100293.41;5068800;28;20284;-76
2022/11/05 05:12:07;;;;;;;8.40;7.60;;;;;;;9.30;100.00;100296.84;5059214;28;20186;-76
2022/11/05 05:14:33;;;;;;;7.10;6.40;;;;;;;9.30;100.00;100304.59;5062330;28;20190;-76
2022/11/05 05:16:58;;;;;;;7.70;6.93;;;;;;;9.30;100.00;100304.59;5063047;28;20632;-77
2022/11/05 05:19:24;;;;;;;7.37;6.77;;;;;;;9.28;100.00;100302.88;5062544;28;20656;-75
2022/11/05 05:21:50;;;;;;;6.90;6.23;;;;;;;9.26;100.00;100312.34;5056888;28;20218;-74
2022/11/05 05:24:17;;;;;;;6.20;5.70;;;;;;;9.23;100.00;100315.78;5061714;28;20185;-77
2022/11/05 05:26:48;;;;;;;5.93;5.53;;;;;;;9.20;100.00;100318.41;5065101;28;20193;-76
2022/11/05 05:29:14;;;;;;;6.00;5.50;;;;;;;9.17;100.00;100325.28;5061019;28;20228;-76
2022/11/05 05:31:40;;;;;;;6.03;5.63;;;;;;;9.17;100.00;100328.72;5058252;28;20222;-74
2022/11/05 05:34:09;;;;;;;5.80;5.30;;;;;;;9.18;100.00;100332.16;5057307;28;20199;-76
2022/11/05 05:36:34;;;;;;;6.07;5.57;;;;;;;9.18;100.00;100333.03;5061376;28;20202;-75
2022/11/05 05:39:00;;;;;;;6.20;5.70;;;;;;;9.18;100.00;100343.38;5070658;28;20561;-75
2022/11/05 05:41:25;;;;;;;5.60;5.13;;;;;;;9.18;100.00;100337.31;5071639;28;20278;-75
2022/11/05 05:43:50;;;;;;;5.50;5.00;;;;;;;9.19;100.00;100347.66;5060570;28;20217;-77
2022/11/05 05:46:18;;;;;;;5.80;5.30;;;;;;;9.21;100.00;100343.38;5065344;28;20186;-76
2022/11/05 05:48:49;;;;;;;6.30;5.80;;;;;;;9.24;100.00;100350.22;5065722;28;20701;-77
2022/11/05 05:51:15;;;;;;;6.20;5.70;;;;;;;9.24;100.00;100352.81;5076722;28;20261;-76
2022/11/05 05:53:41;;;;;;;6.53;6.00;;;;;;;9.25;100.00;100357.13;5068825;28;20219;-76
2022/11/05 05:56:06;;;;;;;6.20;5.77;;;;;;;9.25;100.00;100360.53;5067331;28;20209;-77
2022/11/05 05:58:37;;;;;;;6.53;6.03;;;;;;;9.27;100.00;100363.16;5061164;28;20194;-75
2022/11/05 06:01:05;;;;;;;6.90;6.40;;;;;;;9.27;100.00;100364.00;5064285;28;20298;-76
2022/11/05 06:03:31;;;;;;;7.03;6.43;;;;;;;9.28;100.00;100372.63;5067220;28;20686;-76
2022/11/05 06:06:05;;;;;;;6.83;6.33;;;;;;;9.28;100.00;100370.88;5057230;28;20224;-76
2022/11/05 06:08:31;;;;;;;6.20;5.70;;;;;;;9.29;100.00;100369.16;5068254;28;20327;-77
2022/11/05 06:10:58;;;;;;;5.90;5.50;;;;;;;9.29;100.00;100375.19;5058487;28;20281;-76
2022/11/05 06:13:23;;;;;;;6.60;6.10;;;;;;;9.28;100.00;100376.03;5062856;28;20196;-77
2022/11/05 06:15:49;;;;;;;6.33;5.73;;;;;;;9.28;100.00;100388.09;5061643;28;20195;-76
2022/11/05 06:18:14;;;;;;;6.00;5.50;;;;;;;9.27;100.00;100381.22;5067843;28;20247;-75
2022/11/05 06:20:39;;;;;;;5.63;5.23;;;;;;;9.26;100.00;100393.25;5069832;28;20298;-76
2022/11/05 06:23:05;;;;;;;5.37;4.97;;;;;;;9.24;100.00;100396.72;5065284;28;20187;-77
2022/11/05 06:25:31;;;;;;;6.23;5.73;;;;;;;9.24;100.00;100394.97;5070380;28;20185;-75
2022/11/05 06:27:56;;;;;;;5.30;4.80;;;;;;;9.24;100.00;100396.72;5070718;28;20197;-74
2022/11/05 06:30:22;;;;;;;4.90;4.50;;;;;;;9.24;100.00;100404.47;5073857;28;20204;-77
2022/11/05 06:32:48;;;;;;;4.53;4.23;;;;;;;9.23;100.00;100405.31;5065723;28;20182;-77
2022/11/05 06:35:14;;;;;;;4.60;4.20;;;;;;;9.22;100.00;100414.81;5060804;28;20280;-76
2022/11/05 06:37:40;;;;;;;4.13;3.83;;;;;;;9.20;100.00;100413.94;5069700;28;20236;-76
2022/11/05 06:40:06;;;;;;;4.03;3.73;;;;;;;9.19;100.00;100419.97;5065582;28;20214;-75
2022/11/05 06:42:32;;;;;;;3.70;3.40;;;;;;;9.20;100.00;100423.41;5065417;28;20189;-75
2022/11/05 06:44:57;;;;;;;3.83;3.53;;;;;;;9.21;100.00;100425.13;5068700;28;20714;-74
2022/11/05 06:47:22;;;;;;;4.17;3.83;;;;;;;9.21;100.00;100435.44;5069292;28;20186;-76
2022/11/05 06:49:48;;;;;;;4.40;4.00;;;;;;;9.20;100.00;100434.59;5067838;28;20211;-74
2022/11/05 06:52:14;;;;;;;4.60;4.20;;;;;;;9.22;100.00;100435.47;5070500;28;20283;-74
2022/11/05 06:54:41;;;;;;;4.50;4.10;;;;;;;9.23;100.00;100444.06;5067187;28;20190;-74
2022/11/05 06:57:10;;;;;;;3.87;3.63;;;;;;;9.25;100.00;100439.75;5063310;28;20556;-75
2022/11/05 06:59:37;;;;;;;4.60;4.30;;;;;;;9.25;100.00;100440.59;5074609;28;20209;-74
2022/11/05 07:02:03;;;;;;;4.90;4.50;;;;;;;9.27;100.00;100453.53;5070403;28;20646;-77
2022/11/05 07:04:29;;;;;;;4.70;4.30;;;;;;;9.26;100.00;100450.06;5070293;28;20193;-75
2022/11/05 07:06:54;;;;;;;4.53;4.13;;;;;;;9.28;100.00;100458.69;5061783;28;20264;-75
2022/11/05 07:09:19;;;;;;;4.80;4.40;;;;;;;9.27;100.00;100464.72;5065172;28;20241;-77
2022/11/05 07:11:45;;;;;;;4.70;4.30;;;;;;;9.28;100.00;100458.69;5067621;28;20189;-76
2022/11/05 07:14:10;;;;;;;5.00;4.60;;;;;;;9.28;100.00;100474.19;5075322;28;20200;-76
2022/11/05 07:16:35;;;;;;;4.97;4.53;;;;;;;9.30;100.00;100481.94;5066842;28;20272;-76
2022/11/05 07:19:01;;;;;;;4.80;4.40;;;;;;;9.30;100.00;100487.09;5068465;28;20248;-75
2022/11/05 07:21:27;;;;;;;4.20;3.90;;;;;;;9.31;100.00;100488.81;5071502;28;20205;-76
2022/11/05 07:23:53;;;;;;;5.30;4.47;;;;;;;9.35;100.00;100487.94;5057499;28;20202;-75
2022/11/05 07:26:18;;;;;;;4.50;4.10;;;;;;;9.37;100.00;100493.97;5069276;28;20189;-75
2022/11/05 07:28:43;;;;;;;4.50;4.10;;;;;;;9.41;100.00;100506.03;5064085;28;20198;-76
2022/11/05 07:31:09;;;;;;;4.37;4.07;;;;;;;9.46;100.00;100506.03;5060626;28;20195;-77
2022/11/05 07:33:34;;;;;;;4.07;3.77;;;;;;;9.51;100.00;100506.91;5070763;28;20188;-76
2022/11/05 07:35:59;;;;;;;3.90;3.60;;;;;;;9.56;100.00;100505.16;5069823;28;20285;-77
2022/11/05 07:38:25;;;;;;;3.60;3.30;;;;;;;9.63;100.00;100510.31;5065193;28;20182;-77
2022/11/05 07:40:50;;;;;;;3.77;3.47;;;;;;;9.68;100.00;100508.59;5068170;28;20688;-77
2022/11/05 07:43:16;;;;;;;3.53;3.23;;;;;;;9.73;100.00;100512.91;5067746;28;20197;-75
2022/11/05 07:45:41;;;;;;;3.17;2.97;;;;;;;9.82;100.00;100521.47;5075046;28;20186;-77
2022/11/05 07:48:07;;;;;;;4.03;3.67;;;;;;;9.89;100.00;100513.69;5069683;28;20255;-76
2022/11/05 07:50:35;;;;;;;3.40;3.10;;;;;;;9.99;100.00;100514.53;5074262;28;20270;-75
2022/11/05 07:53:05;;;;;;;2.87;2.67;;;;;;;10.07;100.00;100517.94;5073488;28;20681;-76
2022/11/05 07:55:31;;;;;;;2.97;2.77;;;;;;;10.17;100.00;100521.38;5072026;28;20197;-75
2022/11/05 07:57:57;;;;;;;2.70;2.50;;;;;;;10.26;100.00;100519.63;5062192;28;20199;-76
2022/11/05 08:00:24;;;;;;;3.13;2.93;;;;;;;10.30;100.00;100534.25;5064995;28;20210;-75
2022/11/05 08:03:13;;;;;;;2.50;2.30;;;;;;;10.32;100.00;100536.00;5068621;28;20200;-75
2022/11/05 08:05:42;;;;;;;2.90;2.70;;;;;;;10.31;100.00;100541.16;5066041;28;20602;-76
2022/11/05 08:08:08;;;;;;;3.20;3.00;;;;;;;10.31;100.00;100538.56;5064854;28;20202;-76
2022/11/05 08:10:34;;;;;;;3.20;3.00;;;;;;;10.30;100.00;100540.31;5058005;28;20194;-75
2022/11/05 08:13:00;;;;;;;3.10;2.90;;;;;;;10.31;100.00;100541.16;5056566;28;20184;-75
2022/11/05 08:15:26;;;;;;;3.10;2.90;;;;;;;10.33;100.00;100555.81;5059481;28;20193;-76
2022/11/05 08:18:03;;;;;;;3.10;2.90;;;;;;;10.37;100.00;100561.84;5068295;28;20646;-76
2022/11/05 08:20:29;;;;;;;3.00;2.80;;;;;;;10.39;100.00;100554.09;5067443;28;20212;-76
2022/11/05 08:22:56;;;;;;;3.20;2.90;;;;;;;10.43;100.00;100560.97;5062989;28;20205;-75
2022/11/05 08:25:21;;;;;;;2.90;2.70;;;;;;;10.47;100.00;100565.28;5069219;28;20213;-75
2022/11/05 08:27:54;;;;;;;3.77;3.40;;;;;;;10.51;100.00;100567.84;5061438;28;20633;-77
2022/11/05 08:30:20;;;;;;;3.07;2.87;;;;;;;10.54;100.00;100564.38;5061113;28;20205;-75
2022/11/05 08:32:45;;;;;;;3.03;2.83;;;;;;;10.59;100.00;100574.72;5056261;28;20220;-76
2022/11/05 08:35:10;;;;;;;3.07;2.63;;;;;;;10.61;100.00;100576.44;5061361;28;20189;-74
2022/11/05 08:37:36;;;;;;;2.80;2.60;;;;;;;10.63;100.00;100574.72;5062749;28;20233;-74
2022/11/05 08:40:01;;;;;;;2.90;2.70;;;;;;;10.67;100.00;100580.72;5065446;28;20253;-74
2022/11/05 08:42:26;;;;;;;2.60;2.40;;;;;;;10.72;100.00;100578.97;5066774;28;20300;-76
2022/11/05 08:44:52;;;;;;;3.03;2.73;;;;;;;10.82;100.00;100579.78;5067868;28;20186;-73
2022/11/05 08:47:17;;;;;;;3.27;2.90;;;;;;;10.92;100.00;100583.19;5067221;28;20216;-74
2022/11/05 08:49:42;;;;;;;2.93;2.60;;;;;;;11.05;100.00;100586.56;5072513;28;20294;-74
2022/11/05 08:52:08;;;;;;;2.73;2.53;;;;;;;11.22;100.00;100586.44;5071612;28;20778;-74
2022/11/05 08:54:33;;;;;;;2.50;2.30;;;;;;;11.40;100.00;100577.69;5069663;28;20197;-74
2022/11/05 08:56:59;;;;;;;2.40;2.20;;;;;;;11.56;100.00;100591.38;5064717;28;20191;-75
2022/11/05 08:59:24;;;;;;;2.20;2.00;;;;;;;11.66;100.00;100584.38;5068769;28;20288;-73
2022/11/05 09:01:49;;;;;;;2.40;2.20;;;;;;;11.70;100.00;100586.94;5068017;28;20255;-74
2022/11/05 09:04:15;;;;;;;2.33;2.13;;;;;;;11.73;100.00;100586.03;5071474;28;20195;-74
2022/11/05 09:06:40;;;;;;;2.40;2.20;;;;;;;11.77;100.00;100581.72;5073706;28;20181;-75
2022/11/05 09:09:05;;;;;;;2.30;2.10;;;;;;;11.80;100.00;100590.31;5075835;28;20673;-77
2022/11/05 09:11:31;;;;;;;2.33;2.13;;;;;;;11.85;100.00;100598.91;5069072;28;21753;-75
2022/11/05 09:13:56;;;;;;;2.10;2.00;;;;;;;11.88;100.00;100590.25;5066589;28;20187;-75
2022/11/05 09:16:24;;;;;;;2.33;2.17;;;;;;;11.90;100.00;100584.16;5067480;28;20186;-75
2022/11/05 09:18:49;;;;;;;3.27;2.97;;;;;;;11.92;100.00;100591.06;5075532;28;20556;-76
2022/11/05 09:21:16;;;;;;;2.03;1.93;;;;;;;11.96;100.00;100600.53;5075987;28;20207;-75
2022/11/05 09:23:42;;;;;;;2.67;2.47;;;;;;;12.02;100.00;100598.78;5061574;28;20186;-75
2022/11/05 09:26:09;;;;;;;2.50;2.30;;;;;;;12.10;100.00;100598.69;5060278;28;20190;-75
2022/11/05 09:28:34;;;;;;;2.70;2.50;;;;;;;12.18;100.00;100602.06;5065662;28;20200;-76
2022/11/05 09:31:05;;;;;;;2.57;2.37;;;;;;;12.25;100.00;100608.03;5073258;28;20202;-74
2022/11/05 09:33:31;;;;;;;3.47;2.80;;;;;;;12.32;100.00;100601.06;5066803;28;20265;-75
2022/11/05 09:35:58;;;;;;;2.60;2.40;;;;;;;12.34;100.00;100602.78;5069320;28;20174;-74
2022/11/05 09:38:23;;;;;;;2.40;2.20;;;;;;;12.38;100.00;100597.56;5081646;28;20190;-74
2022/11/05 09:41:00;;;;;;;2.73;2.50;;;;;;;12.43;100.00;100609.59;5064749;28;20219;-78
2022/11/05 09:43:37;;;;;;;2.40;2.20;;;;;;;12.42;100.00;100613.06;5062633;28;20793;-76
2022/11/05 09:46:08;;;;;;;2.57;2.37;;;;;;;12.41;100.00;100616.53;5064961;28;20190;-74
2022/11/05 09:48:37;;;;;;;2.70;2.50;;;;;;;12.37;100.00;100620.03;5061651;28;20601;-74
2022/11/05 09:51:04;;;;;;;2.70;2.50;;;;;;;12.33;100.00;100615.75;5062323;28;20263;-75
2022/11/05 09:53:29;;;;;;;3.77;2.73;;;;;;;12.31;100.00;100623.56;5066463;28;20196;-77
2022/11/05 09:55:57;;;;;;;2.50;2.30;;;;;;;12.34;100.00;100620.06;5072574;28;20570;-76
2022/11/05 09:58:39;;;;;;;2.70;2.50;;;;;;;12.39;100.00;100620.03;5068397;28;20659;-74
2022/11/05 10:01:09;;;;;;;2.57;2.17;;;;;;;12.48;100.00;100614.72;5054239;28;20216;-74
2022/11/05 10:03:44;;;;;;;2.60;2.40;;;;;;;12.59;100.00;100623.25;5062515;28;20189;-74
2022/11/05 10:06:16;;;;;;;3.00;2.70;;;;;;;12.64;100.00;100630.97;5063739;28;20336;-75
2022/11/05 10:08:45;;;;;;;3.83;2.73;;;;;;;12.71;100.00;100630.03;5061507;28;20195;-75
2022/11/05 10:11:24;;;;;;;2.53;2.33;;;;;;;12.79;100.00;100628.19;5059196;28;20718;-75
2022/11/05 10:13:59;;;;;;;3.27;2.60;;;;;;;12.85;100.00;100627.28;5061555;28;20190;-76
2022/11/05 10:16:28;;;;;;;3.00;2.70;;;;;;;12.87;100.00;100635.03;5067684;28;20224;-76
2022/11/05 10:19:16;;;;;;;2.83;2.60;;;;;;;12.92;100.00;100630.66;5057241;28;20251;-76
2022/11/05 10:21:42;;;;;;;2.70;2.23;;;;;;;13.06;100.00;100633.91;5068203;28;20222;-76
2022/11/05 10:24:19;;;;;;;3.17;2.87;;;;;;;13.27;100.00;100635.34;5058085;28;20721;-76
2022/11/05 10:26:51;;;;;;;2.93;2.63;;;;;;;13.41;100.00;100637.75;5061623;28;20288;-76
2022/11/05 10:29:25;;;;;;;4.13;3.20;;;;;;;13.47;100.00;100642.00;5058636;28;20743;-73
2022/11/05 10:31:53;;;;;;;3.30;3.00;;;;;;;13.44;100.00;100643.78;5062465;28;20178;-74
2022/11/05 10:34:20;;;;;;;3.67;3.33;;;;;;;13.33;100.00;100660.38;5060901;28;20276;-74
2022/11/05 10:36:45;;;;;;;3.93;3.50;;;;;;;13.17;100.00;100651.09;5060657;28;20289;-77
2022/11/05 10:39:17;;;;;;;4.23;3.83;;;;;;;13.01;100.00;100659.09;5060272;28;21501;-75
2022/11/05 10:41:48;;;;;;;3.37;3.10;;;;;;;12.90;100.00;100661.81;5058763;28;20212;-72
2022/11/05 10:44:29;;;;;;;3.60;3.30;;;;;;;12.79;100.00;100658.50;5065013;28;20213;-76
2022/11/05 10:47:05;;;;;;;3.10;2.80;;;;;;;12.68;100.00;100665.56;5059229;28;20210;-76
2022/11/05 10:49:40;;;;;;;3.07;2.60;;;;;;;12.49;100.00;100674.41;5068194;28;20721;-75
2022/11/05 10:52:20;;;;;;;3.40;2.57;;;;;;;12.42;100.00;100662.38;5077240;28;20202;-75
2022/11/05 10:54:47;;;;;;;2.50;2.30;;;;;;;12.52;100.00;100667.47;5064152;28;20760;-74
2022/11/05 10:57:29;;;;;;;3.63;2.80;;;;;;;12.83;100.00;100661.91;5064847;28;20244;-75
2022/11/05 11:00:18;;;;;;;3.17;2.87;;;;;;;13.26;100.00;100661.34;5063567;28;20216;-75
2022/11/05 11:02:49;;;;;;;4.07;3.40;;;;;;;13.53;100.00;100651.47;5068829;28;20189;-74
2022/11/05 11:05:29;;;;;;;2.93;2.60;;;;;;;13.74;100.00;100652.88;5065595;28;20186;-75
2022/11/05 11:08:22;;;;;;;3.37;3.07;;;;;;;13.87;100.00;100651.78;5065040;28;20205;-77
2022/11/05 11:10:51;;;;;;;3.50;3.07;;;;;;;14.00;100.00;100646.38;5065865;28;20286;-78
2022/11/05 11:13:25;;;;;;;3.13;2.63;;;;;;;13.95;100.00;100651.66;5083261;28;20176;-77
2022/11/05 11:15:51;;;;;;;2.93;2.67;;;;;;;13.98;100.00;100648.13;5080396;28;20692;-75
2022/11/05 11:18:25;;;;;;;3.20;2.90;;;;;;;13.97;100.00;100649.00;5080829;28;20181;-74
2022/11/05 11:20:51;;;;;;;3.47;2.90;;;;;;;13.87;100.00;100651.78;5074464;28;20307;-75
2022/11/05 11:23:16;;;;;;;3.10;2.77;;;;;;;13.86;100.00;100654.41;5069148;28;20641;-73
2022/11/05 11:25:56;;;;;;;3.30;2.70;;;;;;;13.87;100.00;100643.09;5066696;28;20213;-77
2022/11/05 11:28:31;;;;;;;4.13;2.47;;;;;;;13.81;100.00;100645.81;5059792;28;20546;-74
2022/11/05 11:31:19;;;;;;;2.90;2.47;;;;;;;13.69;100.00;100644.28;5070431;28;20240;-76
2022/11/05 11:33:48;;;;;;;2.80;2.60;;;;;;;13.56;100.00;100638.41;5066069;28;20187;-73
2022/11/05 11:36:18;;;;;;;3.37;2.60;;;;;;;13.46;100.00;100637.69;5063839;28;20212;-76
2022/11/05 11:38:44;;;;;;;4.30;3.73;;;;;;;13.34;100.00;100643.91;5073773;28;20185;-74
2022/11/05 11:41:10;;;;;;;4.00;3.20;;;;;;;13.32;100.00;100645.69;5066153;28;20202;-75
2022/11/05 11:43:38;;;;;;;4.47;4.07;;;;;;;13.32;100.00;100655.19;5075262;28;20538;-78
2022/11/05 11:46:11;;;;;;;4.00;3.43;;;;;;;13.27;100.00;100652.66;5096422;28;20220;-77
2022/11/05 11:48:39;;;;;;;6.07;4.67;;;;;;;13.23;100.00;100659.66;5087700;28;20174;-80
2022/11/05 11:51:43;;;;;;;4.77;4.37;;;;;;;13.10;100.00;100656.34;5081627;28;20226;-78
2022/11/05 11:54:20;;;;;;;5.40;4.90;;;;;;;13.05;100.00;100663.38;5075865;28;20239;-77
2022/11/05 11:56:47;;;;;;;6.30;4.93;;;;;;;13.00;100.00;100670.34;5088924;28;20215;-77
2022/11/05 11:59:30;;;;;;;5.13;4.63;;;;;;;12.97;100.00;100657.41;5077939;28;20197;-78
2022/11/05 12:02:25;;;;;;;6.20;5.30;;;;;;;12.92;100.00;100654.03;5076256;28;20198;-77
2022/11/05 12:04:50;;;;;;;5.40;4.33;;;;;;;12.89;100.00;100657.50;5003493;28;20580;-76
2022/11/05 12:07:27;;;;;;;8.13;5.17;;;;;;;12.94;100.00;100655.72;5062577;28;20240;-75
2022/11/05 12:10:15;;;;;;;5.03;4.63;;;;;;;12.98;100.00;100656.53;5056578;28;20349;-76